Latest Weather Observations for Hindmarsh Island

IDS60901

Issued at 3:51 am CST Monday 25 July 2016 (issued every 10 minutes, with the page automatically refreshed every 10 minutes)

About weather observations | Map of Adelaide area stations | Latest observations for Adelaide area | Other Formats
Station Details ID: 023894 Name: HINDMARSH ISLAND AWS Lat: -35.52 Lon: 138.82 Height: 11.0 m
Data from the previous 72 hours. | See also: Recent months at Hindmarsh Island
Date/Time
CST
Temp
°C
App
Temp
°C
Dew
Point
°C
Rel
Hum
%
Delta-T
°C
Wind Press
QNH
hPa
Press
MSL
hPa
Rain since
9am
mm
Dir  Spd
km/h
Gust
km/h
Spd
kts
Gust
kts
25/03:30am 9.5 4.2 5.1 74 2.0 WNW 22 30 12 16 1013.3 - 10.0
25/03:00am 9.4 4.2 5.4 76 1.8 WNW 22 30 12 16 1013.2 1013.2 10.0
25/02:30am 9.6 4.4 5.6 76 1.8 WNW 22 28 12 15 1013.3 - 10.0
25/02:00am 9.7 4.5 5.5 75 1.9 WNW 22 28 12 15 1013.0 - 10.0
25/01:30am 9.7 4.5 5.7 76 1.8 WNW 22 30 12 16 1012.9 - 10.0
25/01:00am 10.1 4.6 5.9 75 1.9 WNW 24 32 13 17 1012.5 - 10.0
25/12:30am 10.4 4.7 6.5 77 1.8 W 26 37 14 20 1012.3 - 10.0
25/12:00am 9.8 3.7 6.7 81 1.5 W 28 35 15 19 1012.1 1012.1 10.0
 
Date/Time
CST
Temp
°C
App
Temp
°C
Dew
Point
°C
Rel
Hum
%
Delta-T
°C
Wind Press
QNH
hPa
Press
MSL
hPa
Rain since
9am
mm
Dir  Spd
km/h
Gust
km/h
Spd
kts
Gust
kts
24/11:30pm 10.0 2.2 6.5 79 1.6 W 37 57 20 31 1011.6 - 9.6
24/11:27pm 10.0 2.9 6.3 78 1.7 W 33 52 18 28 1011.7 - 9.6
24/11:00pm 10.0 3.2 6.9 81 1.5 W 32 44 17 24 1011.3 - 9.6
24/10:35pm 10.2 2.0 6.7 79 1.6 W 39 57 21 31 1010.9 - 8.6
24/10:32pm 10.2 2.0 6.7 79 1.6 W 39 57 21 31 1010.9 - 8.6
24/10:30pm 10.3 2.2 6.8 79 1.6 W 39 56 21 30 1010.9 - 8.6
24/10:08pm 10.3 2.4 6.1 75 1.9 W 37 61 20 33 1010.4 - 8.2
24/10:05pm 10.3 2.4 6.1 75 1.9 W 37 61 20 33 1010.4 - 8.2
24/10:00pm 10.3 2.8 6.3 76 1.9 W 35 48 19 26 1010.4 - 8.2
24/09:30pm 10.8 2.9 6.2 73 2.1 W 37 50 20 27 1010.1 - 8.0
24/09:01pm 11.1 2.5 6.5 73 2.2 W 41 59 22 32 1009.6 - 8.0
24/09:00pm 11.1 2.9 6.5 73 2.2 W 39 59 21 32 1009.7 1009.7 8.0
24/08:39pm 11.2 3.4 6.5 73 2.2 W 37 57 20 31 1009.2 - 8.0
24/08:36pm 11.2 3.4 6.5 73 2.2 W 37 57 20 31 1009.2 - 8.0
24/08:30pm 11.1 3.3 6.8 75 2.0 W 37 54 20 29 1009.2 - 8.0
24/08:00pm 11.0 4.1 7.3 78 1.8 W 33 46 18 25 1008.5 - 8.0
24/07:30pm 11.4 1.5 6.7 73 2.2 W 48 69 26 37 1007.9 - 8.0
24/07:04pm 11.5 2.5 6.4 71 2.4 W 43 61 23 33 1007.1 - 8.0
24/07:01pm 11.5 2.5 6.4 71 2.4 W 43 61 23 33 1007.1 - 8.0
24/07:00pm 11.4 2.4 6.5 72 2.3 W 43 59 23 32 1007.2 - 8.0
24/06:30pm 11.5 2.5 6.6 72 2.3 W 43 65 23 35 1006.4 - 8.0
24/06:24pm 11.4 2.5 6.7 73 2.2 W 43 61 23 33 1006.0 - 8.0
24/06:21pm 11.4 2.5 6.7 73 2.2 W 43 61 23 33 1006.0 - 8.0
24/06:00pm 11.2 2.4 7.1 76 2.0 W 43 59 23 32 1005.6 1005.6 8.0
24/05:36pm 10.9 1.4 6.8 76 1.9 W 46 65 25 35 1005.1 - 8.0
24/05:33pm 10.9 1.4 6.8 76 1.9 W 46 65 25 35 1005.1 - 8.0
24/05:30pm 10.8 1.3 6.9 77 1.8 W 46 63 25 34 1005.0 - 8.0
24/05:03pm 10.1 2.0 7.0 81 1.5 W 39 59 21 32 1005.2 - 8.0
24/05:00pm 10.1 2.0 7.0 81 1.5 W 39 59 21 32 1005.2 - 8.0
24/04:41pm 9.8 2.1 7.1 83 1.3 W 37 56 20 30 1005.3 - 7.2
24/04:38pm 9.8 2.5 7.1 83 1.3 W 35 56 19 30 1005.3 - 7.2
24/04:30pm 10.0 3.3 7.3 83 1.3 W 32 46 17 25 1005.7 - 6.4
24/04:00pm 9.9 2.0 6.2 78 1.7 W 37 50 20 27 1005.3 - 4.6
24/03:30pm 10.6 2.6 5.6 71 2.3 WNW 37 59 20 32 1005.2 - 4.0
24/03:00pm 11.0 1.4 4.5 64 2.9 WNW 44 70 24 38 1005.3 1005.2 3.8
24/02:30pm 11.8 2.4 4.5 61 3.3 WNW 43 69 23 37 1005.0 - 3.8
24/02:03pm 11.8 3.2 4.8 62 3.2 W 39 59 21 32 1005.0 - 3.8
24/02:00pm 11.8 3.2 4.8 62 3.2 W 39 59 21 32 1005.0 - 3.8
24/01:30pm 11.2 2.4 5.5 68 2.6 WNW 41 72 22 39 1005.3 - 3.6
24/01:25pm 12.1 4.4 5.3 63 3.1 W 35 54 19 29 1005.2 - 3.6
24/01:12pm 11.9 4.2 5.3 64 3.0 W 35 52 19 28 1005.2 - 3.6
24/01:07pm 11.8 5.4 5.4 65 3.0 WNW 28 46 15 25 1005.2 - 3.6
24/01:00pm 11.1 5.6 5.8 70 2.5 WNW 24 39 13 21 1005.3 - 3.6
24/12:30pm 8.6 3.9 5.9 83 1.2 WNW 20 28 11 15 1006.2 - 3.6
24/12:09pm 9.1 2.0 5.5 78 1.6 W 32 70 17 38 1006.5 - 2.2
24/12:06pm 9.1 2.0 5.5 78 1.6 W 32 70 17 38 1006.5 - 2.2
24/12:00pm 9.9 2.7 6.1 77 1.8 WNW 33 48 18 26 1006.1 1006.0 1.8
24/11:41am 10.0 3.7 5.8 75 1.9 NW 28 46 15 25 1006.0 - 1.6
24/11:38am 10.0 3.7 5.8 75 1.9 NW 28 46 15 25 1006.0 - 1.6
24/11:30am 9.6 4.1 6.1 79 1.6 NW 24 35 13 19 1006.3 - 1.6
24/11:00am 8.5 3.9 5.8 83 1.2 NNW 19 24 10 13 1006.5 - 1.6
24/10:30am 8.2 2.2 5.3 82 1.3 WNW 26 32 14 17 1006.9 - 1.2
24/10:00am 8.2 -0.8 4.8 79 1.5 W 41 61 22 33 1006.5 - 0.6
24/09:56am 8.1 -0.1 4.5 78 1.6 W 37 61 20 33 1006.4 - 0.4
24/09:52am 7.9 -0.5 3.9 76 1.7 W 37 56 20 30 1006.4 - 0.4
24/09:42am 10.2 4.1 6.7 79 1.6 NNW 28 48 15 26 1006.0 - 0.0
24/09:39am 10.2 4.1 6.7 79 1.6 NNW 28 48 15 26 1006.0 - 0.0
24/09:30am 10.6 6.1 7.1 79 1.7 NNW 20 35 11 19 1006.1 - 0.0
24/09:00am 10.7 5.3 6.3 74 2.1 NNW 24 39 13 21 1006.1 1006.1 0.6
24/08:30am 10.3 3.4 6.6 78 1.7 NNW 32 52 17 28 1006.0 - 0.6
24/08:04am 10.2 4.1 6.4 77 1.8 NNW 28 46 15 25 1006.0 - 0.6
24/08:01am 10.2 4.1 6.4 77 1.8 NNW 28 46 15 25 1006.0 - 0.6
24/08:00am 10.2 4.4 6.4 77 1.8 NNW 26 46 14 25 1006.1 - 0.6
24/07:30am 9.5 4.5 6.6 82 1.4 NNW 22 32 12 17 1006.7 - 0.4
24/07:00am 9.2 3.7 5.8 79 1.6 N 24 35 13 19 1006.7 - 0.4
24/06:30am 8.7 3.5 5.3 79 1.5 N 22 32 12 17 1007.3 - 0.4
24/06:00am 7.7 3.7 4.7 81 1.3 N 15 24 8 13 1007.9 1007.9 0.4
24/05:30am 7.2 2.7 4.0 80 1.4 N 17 22 9 12 1008.0 - 0.2
24/05:00am 7.8 3.0 4.4 79 1.5 N 19 28 10 15 1008.1 - 0.2
24/04:30am 6.5 1.9 3.8 83 1.1 N 17 20 9 11 1008.7 - 0.2
24/04:00am 7.1 2.0 4.2 82 1.3 NNE 20 26 11 14 1009.3 - 0.2
24/03:30am 7.3 3.2 4.6 83 1.2 N 15 20 8 11 1010.0 - 0.2
24/03:00am 7.1 2.6 4.4 83 1.2 N 17 22 9 12 1010.4 1010.5 0.2
24/02:30am 7.4 3.4 4.9 84 1.1 N 15 19 8 10 1011.0 - 0.2
24/02:00am 7.1 3.5 4.8 85 1.0 NNE 13 17 7 9 1011.5 - 0.2
24/01:30am 7.0 3.7 4.7 85 1.0 NNE 11 13 6 7 1012.1 - 0.2
24/01:00am 7.2 4.0 4.9 85 1.0 NNE 11 15 6 8 1012.6 - 0.2
24/12:30am 7.5 4.3 5.1 85 1.1 N 11 17 6 9 1013.0 - 0.2
24/12:00am 6.3 2.5 4.0 85 1.0 ENE 13 15 7 8 1013.5 1013.5 0.2
 
Date/Time
CST
Temp
°C
App
Temp
°C
Dew
Point
°C
Rel
Hum
%
Delta-T
°C
Wind Press
QNH
hPa
Press
MSL
hPa
Rain since
9am
mm
Dir  Spd
km/h
Gust
km/h
Spd
kts
Gust
kts
23/11:30pm 7.8 5.4 5.3 84 1.1 N 7 13 4 7 1013.8 - 0.2
23/11:00pm 7.9 5.5 5.4 84 1.1 N 7 9 4 5 1014.0 - 0.2
23/10:30pm 8.3 6.0 5.8 84 1.1 WNW 7 9 4 5 1014.3 - 0.2
23/10:00pm 8.4 5.3 5.7 83 1.2 N 11 15 6 8 1014.1 - 0.2
23/09:30pm 7.9 4.3 5.2 83 1.2 NNW 13 17 7 9 1014.4 - 0.2
23/09:00pm 7.9 4.3 5.2 83 1.2 NNW 13 15 7 8 1014.6 1014.6 0.2
23/08:30pm 7.7 4.8 4.8 82 1.3 N 9 11 5 6 1014.8 - 0.2
23/08:00pm 8.0 4.4 4.9 81 1.4 NNW 13 19 7 10 1014.8 - 0.2
23/07:30pm 8.5 5.0 5.3 80 1.4 NNW 13 17 7 9 1014.9 - 0.2
23/07:00pm 8.2 5.7 5.0 80 1.4 N 7 11 4 6 1014.9 - 0.0
23/06:30pm 8.5 6.0 4.9 78 1.6 NNW 7 9 4 5 1014.7 - 0.0
23/06:00pm 9.0 6.2 5.2 77 1.7 NW 9 9 5 5 1014.5 1014.5 0.0
23/05:30pm 9.8 6.3 5.6 75 1.9 W 13 17 7 9 1014.4 - 0.0
23/05:00pm 10.0 4.5 6.0 76 1.8 WSW 24 30 13 16 1014.4 - 0.0
23/04:30pm 10.7 4.7 5.5 70 2.4 SW 26 33 14 18 1014.2 - 0.0
23/04:00pm 11.7 6.7 3.5 57 3.6 W 19 26 10 14 1014.2 - 0.0
23/03:30pm 11.7 6.6 4.0 59 3.4 WNW 20 26 11 14 1014.2 - 0.0
23/03:00pm 12.6 7.2 4.3 57 3.8 WSW 22 33 12 18 1014.0 1013.9 0.0
23/02:30pm 12.6 7.3 3.0 52 4.2 W 20 28 11 15 1013.7 - 0.0
23/02:00pm 12.8 7.6 3.7 54 4.1 W 20 26 11 14 1013.7 - 0.0
23/01:30pm 11.9 6.3 3.7 57 3.7 W 22 32 12 17 1013.9 - 0.0
23/01:00pm 12.4 5.9 2.6 51 4.3 WSW 26 37 14 20 1013.9 - 0.0
23/12:30pm 12.9 6.3 4.1 55 4.0 WSW 28 35 15 19 1013.9 - 0.0
23/12:00pm 12.1 4.5 4.1 58 3.6 SW 33 41 18 22 1014.2 1014.1 0.0
23/11:38am 11.5 2.4 4.0 60 3.4 SSW 41 48 22 26 1014.1 - 0.0
23/11:35am 12.0 5.4 4.2 59 3.5 WSW 28 50 15 27 1014.1 - 0.0
23/11:32am 12.0 5.4 4.2 59 3.5 WSW 28 50 15 27 1014.1 - 0.0
23/11:30am 12.1 5.8 3.6 56 3.8 WSW 26 33 14 18 1014.2 - 0.0
23/11:00am 12.8 6.5 3.5 53 4.2 SW 26 33 14 18 1014.2 - 0.0
23/10:30am 11.9 4.4 4.4 60 3.4 SSW 33 41 18 22 1014.0 - 0.0
23/10:00am 12.0 4.9 3.5 56 3.8 SW 30 39 16 21 1013.7 - 0.0
23/09:30am 12.0 4.7 4.5 60 3.4 SW 32 41 17 22 1013.4 - 0.0
23/09:03am 10.7 3.6 3.7 62 3.1 SW 30 48 16 26 1013.1 - 0.0
23/09:00am 10.7 3.0 3.5 61 3.2 SW 33 48 18 26 1013.1 1012.9 4.4
23/08:30am 10.4 6.3 4.1 65 2.8 SW 15 33 8 18 1012.6 - 4.4
23/08:20am 10.8 2.9 4.3 64 2.9 SW 35 54 19 29 1012.2 - 4.4
23/08:17am 10.8 2.9 4.3 64 2.9 SW 35 54 19 29 1012.2 - 4.4
23/08:00am 10.6 2.5 3.4 61 3.1 SSW 35 43 19 23 1011.9 - 4.4
23/07:30am 10.3 3.1 5.7 73 2.1 SSW 33 48 18 26 1011.5 - 4.4
23/07:29am 10.5 3.8 5.7 72 2.2 SW 30 48 16 26 1011.4 - 4.4
23/07:26am 10.5 3.8 5.7 72 2.2 SW 30 48 16 26 1011.4 - 4.4
23/07:00am 10.3 1.7 4.9 69 2.4 SSW 39 46 21 25 1010.9 - 4.4
23/06:51am 10.4 0.3 5.8 73 2.1 SSW 48 57 26 31 1010.5 - 4.4
23/06:30am 10.4 1.9 5.2 70 2.4 SW 39 48 21 26 1010.5 - 4.4
23/06:25am 9.8 3.4 5.4 74 2.0 WSW 28 48 15 26 1010.6 - 4.4
23/06:22am 9.8 3.4 5.4 74 2.0 WSW 28 48 15 26 1010.6 - 4.4
23/06:00am 9.7 3.6 6.8 82 1.4 WSW 28 39 15 21 1010.4 1010.3 4.4
23/05:30am 9.4 3.6 6.3 81 1.4 WSW 26 35 14 19 1009.7 - 4.2
23/05:16am 9.8 3.6 6.2 78 1.7 W 28 50 15 27 1009.4 - 4.0
23/05:13am 9.8 3.6 6.2 78 1.7 W 28 50 15 27 1009.4 - 4.0
23/05:00am 9.7 3.9 6.1 78 1.7 W 26 35 14 19 1009.2 - 4.0
23/04:30am 9.6 3.8 6.3 80 1.5 W 26 37 14 20 1008.6 - 4.0
23/04:00am 9.7 3.9 6.2 79 1.6 W 26 33 14 18 1008.2 - 3.8
23/03:30am 9.7 4.6 6.2 79 1.6 W 22 37 12 20 1008.0 - 3.8
23/03:00am 9.6 3.7 6.0 78 1.7 W 26 35 14 19 1007.9 1007.8 3.8
23/02:30am 9.7 4.7 6.4 80 1.5 W 22 30 12 16 1007.6 - 3.8
23/02:00am 9.6 4.1 6.0 78 1.7 WNW 24 33 13 18 1007.2 - 3.6
23/01:44am 10.6 3.5 6.4 75 2.0 W 33 52 18 28 1007.0 - 3.6
23/01:41am 10.6 3.5 6.4 75 2.0 W 33 52 18 28 1007.0 - 3.6
23/01:30am 10.6 3.5 6.4 75 2.0 W 33 50 18 27 1006.7 - 3.6
23/01:06am 10.5 2.7 6.8 78 1.7 WSW 37 59 20 32 1006.0 - 3.6
23/01:03am 10.5 2.4 6.8 78 1.7 WSW 39 59 21 32 1006.0 - 3.6
23/01:00am 10.3 2.5 6.6 78 1.7 WSW 37 50 20 27 1006.0 - 3.6
23/12:48am 9.8 1.6 6.5 80 1.5 WSW 39 50 21 27 1006.2 - 3.6
23/12:30am 10.3 1.0 5.9 74 2.0 W 44 63 24 34 1005.5 - 3.4
23/12:02am 10.9 1.6 5.0 67 2.7 W 43 61 23 33 1004.7 - 3.2
23/12:00am 11.1 1.6 4.8 65 2.9 W 44 59 24 32 1004.7 1004.7 3.2
 
Date/Time
CST
Temp
°C
App
Temp
°C
Dew
Point
°C
Rel
Hum
%
Delta-T
°C
Wind Press
QNH
hPa
Press
MSL
hPa
Rain since
9am
mm
Dir  Spd
km/h
Gust
km/h
Spd
kts
Gust
kts
22/11:35pm 11.1 2.5 4.8 65 2.9 W 39 57 21 31 1004.5 - 3.2
22/11:32pm 11.1 2.5 4.8 65 2.9 W 39 57 21 31 1004.5 - 3.2
22/11:30pm 11.0 2.4 4.9 66 2.8 W 39 56 21 30 1004.6 - 3.2
22/11:00pm 10.8 2.2 4.5 65 2.8 WNW 39 54 21 29 1003.8 - 3.2
22/10:30pm 10.7 1.5 3.5 61 3.2 W 41 54 22 29 1003.4 - 3.2
22/10:09pm 11.0 2.1 4.9 66 2.8 W 41 69 22 37 1002.9 - 3.2
22/10:02pm 11.1 3.0 5.2 67 2.7 W 37 57 20 31 1002.9 - 3.2
22/10:00pm 11.3 3.6 5.4 67 2.7 W 35 52 19 28 1002.9 - 3.2
22/09:32pm 10.4 0.1 6.4 76 1.9 W 50 69 27 37 1002.6 - 3.2
22/09:30pm 10.5 0.2 6.5 76 1.9 W 50 69 27 37 1002.6 - 3.2
22/09:24pm 10.3 3.2 5.7 73 2.1 W 32 63 17 34 1002.3 - 2.8
22/09:21pm 10.3 3.2 5.7 73 2.1 W 32 63 17 34 1002.3 - 2.8
22/09:00pm 10.7 2.4 4.2 64 2.9 W 37 52 20 28 1002.5 1002.4 2.2
22/08:31pm 10.3 2.3 5.7 73 2.1 WNW 37 56 20 30 1002.1 - 2.2
22/08:30pm 10.2 1.8 5.6 73 2.1 WNW 39 56 21 30 1002.1 - 2.2
22/08:21pm 10.1 3.6 4.9 70 2.3 WNW 28 54 15 29 1001.7 - 2.2
22/08:01pm 10.1 2.9 5.1 71 2.3 WNW 32 50 17 27 1001.9 - 2.2
22/08:00pm 10.0 2.8 5.2 72 2.2 WNW 32 48 17 26 1001.9 - 2.2
22/07:39pm 10.2 3.4 5.2 71 2.3 WNW 30 48 16 26 1001.6 - 2.0
22/07:30pm 10.0 3.2 5.0 71 2.3 WNW 30 43 16 23 1001.2 - 2.0
22/07:07pm 10.2 3.1 5.6 73 2.1 WNW 32 50 17 27 1001.4 - 1.8
22/07:04pm 10.2 3.1 5.6 73 2.1 WNW 32 50 17 27 1001.4 - 1.8
22/07:00pm 10.0 3.3 5.4 73 2.1 WNW 30 44 16 24 1001.1 - 1.8
22/06:39pm 10.1 2.4 5.3 72 2.2 W 35 44 19 24 1000.5 - 1.8
22/06:30pm 9.8 1.4 5.8 76 1.8 W 39 83 21 45 1000.3 - 1.8
22/06:00pm 11.6 1.6 6.1 69 2.6 WNW 48 74 26 40 999.3 999.5 0.8
22/05:40pm 12.4 4.6 6.7 68 2.7 WNW 37 57 20 31 999.1 - 0.6
22/05:37pm 12.4 4.6 6.7 68 2.7 WNW 37 57 20 31 999.1 - 0.6
22/05:30pm 12.3 4.2 6.8 69 2.6 WNW 39 50 21 27 999.1 - 0.6
22/05:00pm 12.3 3.9 7.4 72 2.4 WNW 41 63 22 34 998.8 - 0.6
22/04:30pm 12.5 3.8 7.6 72 2.4 WNW 43 65 23 35 998.4 - 0.6
22/04:06pm 11.6 4.8 7.1 74 2.2 WNW 32 56 17 30 998.3 - 0.6
22/04:03pm 11.6 4.8 7.1 74 2.2 WNW 32 56 17 30 998.3 - 0.6
22/04:00pm 11.5 4.8 7.4 76 2.0 WNW 32 44 17 24 998.4 - 0.6
22/03:37pm 12.8 1.6 5.9 63 3.2 W 54 85 29 46 998.8 - 0.0
22/03:34pm 12.8 1.6 5.9 63 3.2 W 54 85 29 46 998.8 - 0.0
22/03:30pm 14.2 4.4 8.8 70 2.7 NW 50 69 27 37 998.0 - 0.0
22/03:02pm 15.2 6.4 8.2 63 3.5 NW 44 63 24 34 997.6 - 0.0
22/03:00pm 15.4 6.7 8.4 63 3.6 NW 44 63 24 34 997.7 997.7 0.0
22/02:42pm 15.4 7.2 8.4 63 3.5 NW 41 65 22 35 997.5 - 0.0
22/02:39pm 15.4 7.2 8.4 63 3.5 NW 41 65 22 35 997.5 - 0.0
22/02:30pm 15.2 6.5 8.4 64 3.4 NW 44 59 24 32 997.5 - 0.0
22/02:00pm 15.2 7.5 8.7 65 3.3 NW 39 61 21 33 997.9 - 0.0
22/01:32pm 15.3 8.1 7.8 61 3.7 NW 35 57 19 31 998.1 - 0.0
22/01:31pm 15.4 8.5 8.9 65 3.3 NW 35 54 19 29 998.4 - 0.0
22/01:30pm 15.5 8.5 8.5 63 3.5 NW 35 52 19 28 998.3 - 0.0
22/01:00pm 15.3 7.7 9.0 66 3.2 NW 39 61 21 33 999.0 - 0.0
22/12:30pm 16.3 7.0 9.3 63 3.6 NW 48 67 26 36 999.0 - 0.0
22/12:03pm 16.5 9.1 9.7 64 3.6 NW 39 57 21 31 999.6 - 0.0
22/12:00pm 16.2 7.6 8.9 62 3.8 NW 44 57 24 31 999.6 999.5 0.0
22/11:34am 15.9 8.1 9.8 67 3.2 NW 41 59 22 32 999.7 - 0.0
22/11:31am 15.9 8.1 9.8 67 3.2 NW 41 59 22 32 999.7 - 0.0
22/11:30am 15.9 8.1 9.6 66 3.3 NW 41 56 22 30 999.8 - 0.0
22/11:12am 15.8 8.7 9.7 67 3.2 NW 37 61 20 33 1000.1 - 0.0
22/11:09am 15.8 8.7 9.7 67 3.2 NW 37 61 20 33 1000.1 - 0.0
22/11:00am 15.8 8.8 9.9 68 3.1 NW 37 52 20 28 1000.3 - 0.0
22/10:30am 15.1 7.7 9.7 70 2.8 NW 39 54 21 29 1001.0 - 0.0
22/10:07am 15.1 8.5 9.9 71 2.7 NW 35 54 19 29 1001.2 - 0.0
22/10:01am 15.1 8.4 9.7 70 2.8 NW 35 54 19 29 1001.3 - 0.0
22/10:00am 15.1 8.1 9.9 71 2.7 NW 37 54 20 29 1001.2 - 0.0
22/09:30am 14.9 8.2 9.7 71 2.7 NW 35 54 19 29 1001.4 - 0.0
22/09:25am 15.0 8.3 9.8 71 2.7 NW 35 54 19 29 1001.4 - 0.0
22/09:00am 14.8 8.7 9.6 71 2.7 WNW 32 48 17 26 1001.5 1001.4 1.4
22/08:45am 14.7 8.4 9.7 72 2.6 WNW 33 52 18 28 1001.6 - 1.4
22/08:42am 14.7 8.4 9.7 72 2.6 WNW 33 52 18 28 1001.6 - 1.4
22/08:30am 14.6 8.5 9.8 73 2.5 NW 32 44 17 24 1001.8 - 1.4
22/08:00am 14.5 8.8 9.7 73 2.5 NW 30 43 16 23 1001.5 - 1.4
22/07:30am 14.5 9.1 9.5 72 2.6 NW 28 41 15 22 1001.7 - 1.4
22/07:00am 14.8 8.6 9.2 69 2.9 NW 32 44 17 24 1001.8 - 1.4
22/06:30am 14.7 9.7 9.5 71 2.7 WNW 26 35 14 19 1001.6 - 1.4
22/06:00am 14.8 10.2 9.8 72 2.6 WNW 24 41 13 22 1001.4 1001.6 1.4
22/05:30am 14.8 10.4 10.4 75 2.3 WNW 24 33 13 18 1001.5 - 1.4
22/05:00am 14.7 10.7 10.5 76 2.2 NW 22 33 12 18 1001.6 - 1.4
22/04:30am 14.6 9.4 10.4 76 2.2 WNW 28 43 15 23 1001.6 - 1.4
22/04:00am 15.3 10.7 10.9 75 2.3 NW 26 39 14 21 1001.6 - 1.0

Latest Capital City Observations: Canberra | Sydney | Melbourne | Brisbane | Adelaide | Perth | Hobart | Darwin

Other Formats:

Comma delimited format used in spreadsheet applications
http://www.bom.gov.au/fwo/IDS60901/IDS60901.94677.axf

JavaScript Object Notation format (JSON) in row-major order
http://www.bom.gov.au/fwo/IDS60901/IDS60901.94677.json